sensor_id;sensor_type;location;lat;lon;timestamp;P1;durP1;ratioP1;P2;durP2;ratioP2
26824;SDS011;14402;48.178;11.566;2023-08-12T00:00:27;4.6;;;4.1;;
26824;SDS011;14402;48.178;11.566;2023-08-12T00:00:57;4.8;;;3.8;;
26824;SDS011;14402;48.178;11.566;2023-08-12T00:01:27;5.1;;;3.6;;
26824;SDS011;14402;48.178;11.566;2023-08-12T00:01:57;5.1;;;3.6;;
26824;SDS011;14402;48.178;11.566;2023-08-12T00:02:28;5.1;;;3.6;;
26824;SDS011;14402;48.178;11.566;2023-08-12T00:02:58;4.4;;;3.2;;
26824;SDS011;14402;48.178;11.566;2023-08-12T00:03:28;3.8;;;2.9;;
26824;SDS011;14402;48.178;11.566;2023-08-12T00:03:58;3.8;;;2.9;;
26824;SDS011;14402;48.178;11.566;2023-08-12T00:04:28;3.8;;;2.9;;
26824;SDS011;14402;48.178;11.566;2023-08-12T00:04:58;3.9;;;2.8;;
26824;SDS011;14402;48.178;11.566;2023-08-12T00:05:28;4.1;;;2.6;;
26824;SDS011;14402;48.178;11.566;2023-08-12T00:05:58;4.1;;;2.6;;
26824;SDS011;14402;48.178;11.566;2023-08-12T00:06:28;4.1;;;2.6;;
26824;SDS011;14402;48.178;11.566;2023-08-12T00:06:58;3.3;;;2.4;;
26824;SDS011;14402;48.178;11.566;2023-08-12T00:07:28;2.6;;;2.2;;
26824;SDS011;14402;48.178;11.566;2023-08-12T00:07:58;2.6;;;2.2;;
26824;SDS011;14402;48.178;11.566;2023-08-12T00:08:28;2.6;;;2.2;;
26824;SDS011;14402;48.178;11.566;2023-08-12T00:08:58;2.9;;;2.2;;
26824;SDS011;14402;48.178;11.566;2023-08-12T00:09:29;3.3;;;2.3;;
26824;SDS011;14402;48.178;11.566;2023-08-12T00:09:59;3.3;;;2.3;;
26824;SDS011;14402;48.178;11.566;2023-08-12T00:10:29;3.3;;;2.3;;
26824;SDS011;14402;48.178;11.566;2023-08-12T00:10:59;3.3;;;2.3;;
26824;SDS011;14402;48.178;11.566;2023-08-12T00:11:29;3.4;;;2.3;;
26824;SDS011;14402;48.178;11.566;2023-08-12T00:11:59;3.4;;;2.3;;
26824;SDS011;14402;48.178;11.566;2023-08-12T00:12:29;3.4;;;2.3;;
26824;SDS011;14402;48.178;11.566;2023-08-12T00:12:59;4.2;;;2.2;;
26824;SDS011;14402;48.178;11.566;2023-08-12T00:13:29;4.9;;;2.2;;
26824;SDS011;14402;48.178;11.566;2023-08-12T00:13:59;4.9;;;2.2;;
26824;SDS011;14402;48.178;11.566;2023-08-12T00:14:29;4.9;;;2.2;;
26824;SDS011;14402;48.178;11.566;2023-08-12T00:14:59;4.7;;;2.7;;
26824;SDS011;14402;48.178;11.566;2023-08-12T00:15:30;4.5;;;3.2;;
26824;SDS011;14402;48.178;11.566;2023-08-12T00:16:00;4.5;;;3.2;;
26824;SDS011;14402;48.178;11.566;2023-08-12T00:16:30;4.5;;;3.2;;
26824;SDS011;14402;48.178;11.566;2023-08-12T00:17:00;4.7;;;3.0;;
26824;SDS011;14402;48.178;11.566;2023-08-12T00:17:31;4.8;;;2.8;;
26824;SDS011;14402;48.178;11.566;2023-08-12T00:18:00;4.8;;;2.8;;
26824;SDS011;14402;48.178;11.566;2023-08-12T00:18:30;4.8;;;2.8;;
26824;SDS011;14402;48.178;11.566;2023-08-12T00:19:00;4.2;;;2.8;;
26824;SDS011;14402;48.178;11.566;2023-08-12T00:19:30;3.5;;;2.7;;
26824;SDS011;14402;48.178;11.566;2023-08-12T00:20:00;3.5;;;2.7;;
26824;SDS011;14402;48.178;11.566;2023-08-12T00:20:30;3.5;;;2.7;;
26824;SDS011;14402;48.178;11.566;2023-08-12T00:21:00;3.8;;;3.0;;
26824;SDS011;14402;48.178;11.566;2023-08-12T00:21:31;4.0;;;3.3;;
26824;SDS011;14402;48.178;11.566;2023-08-12T00:22:01;4.0;;;3.3;;
26824;SDS011;14402;48.178;11.566;2023-08-12T00:22:31;4.0;;;3.3;;
26824;SDS011;14402;48.178;11.566;2023-08-12T00:23:01;3.5;;;2.9;;
26824;SDS011;14402;48.178;11.566;2023-08-12T00:23:31;3.1;;;2.6;;
26824;SDS011;14402;48.178;11.566;2023-08-12T00:24:01;3.1;;;2.6;;
26824;SDS011;14402;48.178;11.566;2023-08-12T00:24:31;3.1;;;2.6;;
26824;SDS011;14402;48.178;11.566;2023-08-12T00:25:01;2.9;;;2.5;;
26824;SDS011;14402;48.178;11.566;2023-08-12T00:25:31;2.8;;;2.5;;
26824;SDS011;14402;48.178;11.566;2023-08-12T00:26:01;2.8;;;2.5;;
26824;SDS011;14402;48.178;11.566;2023-08-12T00:26:31;2.8;;;2.5;;
26824;SDS011;14402;48.178;11.566;2023-08-12T00:27:01;2.5;;;2.2;;
26824;SDS011;14402;48.178;11.566;2023-08-12T00:27:31;2.2;;;2.0;;
26824;SDS011;14402;48.178;11.566;2023-08-12T00:28:02;2.2;;;2.0;;
26824;SDS011;14402;48.178;11.566;2023-08-12T00:28:32;2.2;;;2.0;;
26824;SDS011;14402;48.178;11.566;2023-08-12T00:29:02;2.8;;;2.2;;
26824;SDS011;14402;48.178;11.566;2023-08-12T00:29:32;3.3;;;2.3;;
26824;SDS011;14402;48.178;11.566;2023-08-12T00:30:02;3.3;;;2.3;;
26824;SDS011;14402;48.178;11.566;2023-08-12T00:30:32;3.3;;;2.3;;
26824;SDS011;14402;48.178;11.566;2023-08-12T00:31:02;4.2;;;3.4;;
26824;SDS011;14402;48.178;11.566;2023-08-12T00:31:32;5.1;;;4.5;;
26824;SDS011;14402;48.178;11.566;2023-08-12T00:32:02;5.1;;;4.5;;
26824;SDS011;14402;48.178;11.566;2023-08-12T00:32:32;5.1;;;4.5;;
26824;SDS011;14402;48.178;11.566;2023-08-12T00:33:02;4.8;;;4.1;;
26824;SDS011;14402;48.178;11.566;2023-08-12T00:33:32;4.4;;;3.7;;
26824;SDS011;14402;48.178;11.566;2023-08-12T00:34:03;4.4;;;3.7;;
26824;SDS011;14402;48.178;11.566;2023-08-12T00:34:33;4.4;;;3.7;;
26824;SDS011;14402;48.178;11.566;2023-08-12T00:35:03;3.8;;;3.2;;
26824;SDS011;14402;48.178;11.566;2023-08-12T00:35:33;3.3;;;2.8;;
26824;SDS011;14402;48.178;11.566;2023-08-12T00:36:03;3.3;;;2.8;;
26824;SDS011;14402;48.178;11.566;2023-08-12T00:36:33;3.3;;;2.8;;
26824;SDS011;14402;48.178;11.566;2023-08-12T00:37:03;3.3;;;2.8;;
26824;SDS011;14402;48.178;11.566;2023-08-12T00:37:33;3.3;;;2.8;;
26824;SDS011;14402;48.178;11.566;2023-08-12T00:38:03;3.3;;;2.8;;
26824;SDS011;14402;48.178;11.566;2023-08-12T00:38:33;3.3;;;2.8;;
26824;SDS011;14402;48.178;11.566;2023-08-12T00:39:03;3.2;;;2.7;;
26824;SDS011;14402;48.178;11.566;2023-08-12T00:39:34;3.0;;;2.6;;
26824;SDS011;14402;48.178;11.566;2023-08-12T00:40:04;3.0;;;2.6;;
26824;SDS011;14402;48.178;11.566;2023-08-12T00:40:34;3.0;;;2.6;;
26824;SDS011;14402;48.178;11.566;2023-08-12T00:41:04;3.2;;;2.5;;
26824;SDS011;14402;48.178;11.566;2023-08-12T00:41:34;3.3;;;2.4;;
26824;SDS011;14402;48.178;11.566;2023-08-12T00:42:04;3.3;;;2.4;;
26824;SDS011;14402;48.178;11.566;2023-08-12T00:42:34;3.3;;;2.4;;
26824;SDS011;14402;48.178;11.566;2023-08-12T00:43:04;3.8;;;2.3;;
26824;SDS011;14402;48.178;11.566;2023-08-12T00:43:34;4.4;;;2.3;;
26824;SDS011;14402;48.178;11.566;2023-08-12T00:44:04;4.4;;;2.3;;
26824;SDS011;14402;48.178;11.566;2023-08-12T00:44:34;4.4;;;2.3;;
26824;SDS011;14402;48.178;11.566;2023-08-12T00:45:05;3.9;;;2.2;;
26824;SDS011;14402;48.178;11.566;2023-08-12T00:45:34;3.4;;;2.2;;
26824;SDS011;14402;48.178;11.566;2023-08-12T00:46:05;3.4;;;2.2;;
26824;SDS011;14402;48.178;11.566;2023-08-12T00:46:35;3.4;;;2.2;;
26824;SDS011;14402;48.178;11.566;2023-08-12T00:47:05;4.6;;;2.2;;
26824;SDS011;14402;48.178;11.566;2023-08-12T00:47:35;5.8;;;2.1;;
26824;SDS011;14402;48.178;11.566;2023-08-12T00:48:05;5.8;;;2.1;;
26824;SDS011;14402;48.178;11.566;2023-08-12T00:48:35;5.8;;;2.1;;
26824;SDS011;14402;48.178;11.566;2023-08-12T00:49:05;4.5;;;2.2;;
26824;SDS011;14402;48.178;11.566;2023-08-12T00:49:35;3.2;;;2.2;;
26824;SDS011;14402;48.178;11.566;2023-08-12T00:50:05;3.2;;;2.2;;
26824;SDS011;14402;48.178;11.566;2023-08-12T00:50:35;3.2;;;2.2;;
26824;SDS011;14402;48.178;11.566;2023-08-12T00:51:05;3.3;;;2.3;;
26824;SDS011;14402;48.178;11.566;2023-08-12T00:51:35;3.4;;;2.5;;
26824;SDS011;14402;48.178;11.566;2023-08-12T00:52:05;3.4;;;2.5;;
26824;SDS011;14402;48.178;11.566;2023-08-12T00:52:36;3.4;;;2.5;;
26824;SDS011;14402;48.178;11.566;2023-08-12T00:53:06;3.3;;;2.5;;
26824;SDS011;14402;48.178;11.566;2023-08-12T00:53:36;3.3;;;2.6;;
26824;SDS011;14402;48.178;11.566;2023-08-12T00:54:06;3.3;;;2.6;;
26824;SDS011;14402;48.178;11.566;2023-08-12T00:54:36;3.3;;;2.6;;
26824;SDS011;14402;48.178;11.566;2023-08-12T00:55:06;3.4;;;2.6;;
26824;SDS011;14402;48.178;11.566;2023-08-12T00:55:36;3.5;;;2.6;;
26824;SDS011;14402;48.178;11.566;2023-08-12T00:56:06;3.5;;;2.6;;
26824;SDS011;14402;48.178;11.566;2023-08-12T00:56:36;3.5;;;2.6;;
26824;SDS011;14402;48.178;11.566;2023-08-12T00:57:06;3.3;;;2.5;;
26824;SDS011;14402;48.178;11.566;2023-08-12T00:57:36;3.1;;;2.4;;
26824;SDS011;14402;48.178;11.566;2023-08-12T00:58:06;3.1;;;2.4;;
26824;SDS011;14402;48.178;11.566;2023-08-12T00:58:37;3.1;;;2.4;;
26824;SDS011;14402;48.178;11.566;2023-08-12T00:59:07;3.4;;;2.3;;
26824;SDS011;14402;48.178;11.566;2023-08-12T00:59:37;3.8;;;2.3;;
26824;SDS011;14402;48.178;11.566;2023-08-12T01:00:07;3.8;;;2.3;;
26824;SDS011;14402;48.178;11.566;2023-08-12T01:00:37;3.8;;;2.3;;
26824;SDS011;14402;48.178;11.566;2023-08-12T01:01:07;3.9;;;2.7;;
26824;SDS011;14402;48.178;11.566;2023-08-12T01:01:38;4.0;;;3.0;;
26824;SDS011;14402;48.178;11.566;2023-08-12T01:02:07;4.0;;;3.0;;
26824;SDS011;14402;48.178;11.566;2023-08-12T01:02:37;4.0;;;3.0;;
26824;SDS011;14402;48.178;11.566;2023-08-12T01:03:07;5.1;;;2.7;;
26824;SDS011;14402;48.178;11.566;2023-08-12T01:03:37;6.2;;;2.3;;
26824;SDS011;14402;48.178;11.566;2023-08-12T01:04:07;6.2;;;2.3;;
26824;SDS011;14402;48.178;11.566;2023-08-12T01:04:38;6.2;;;2.3;;
26824;SDS011;14402;48.178;11.566;2023-08-12T01:05:08;4.9;;;2.3;;
26824;SDS011;14402;48.178;11.566;2023-08-12T01:05:38;3.7;;;2.3;;
26824;SDS011;14402;48.178;11.566;2023-08-12T01:06:08;3.7;;;2.3;;
26824;SDS011;14402;48.178;11.566;2023-08-12T01:06:38;3.7;;;2.3;;
26824;SDS011;14402;48.178;11.566;2023-08-12T01:07:08;3.1;;;2.3;;
26824;SDS011;14402;48.178;11.566;2023-08-12T01:07:38;2.5;;;2.3;;
26824;SDS011;14402;48.178;11.566;2023-08-12T01:08:08;2.5;;;2.3;;
26824;SDS011;14402;48.178;11.566;2023-08-12T01:08:38;2.5;;;2.3;;
26824;SDS011;14402;48.178;11.566;2023-08-12T01:09:08;2.6;;;2.4;;
26824;SDS011;14402;48.178;11.566;2023-08-12T01:09:38;2.7;;;2.5;;
26824;SDS011;14402;48.178;11.566;2023-08-12T01:10:09;2.7;;;2.5;;
26824;SDS011;14402;48.178;11.566;2023-08-12T01:10:39;2.7;;;2.5;;
26824;SDS011;14402;48.178;11.566;2023-08-12T01:11:10;3.0;;;2.5;;
26824;SDS011;14402;48.178;11.566;2023-08-12T01:11:39;3.3;;;2.4;;
26824;SDS011;14402;48.178;11.566;2023-08-12T01:12:09;3.3;;;2.4;;
26824;SDS011;14402;48.178;11.566;2023-08-12T01:12:40;3.3;;;2.4;;
26824;SDS011;14402;48.178;11.566;2023-08-12T01:13:14;3.8;;;2.6;;
26824;SDS011;14402;48.178;11.566;2023-08-12T01:13:41;4.2;;;2.8;;
26824;SDS011;14402;48.178;11.566;2023-08-12T01:14:11;4.2;;;2.8;;
26824;SDS011;14402;48.178;11.566;2023-08-12T01:14:51;4.2;;;2.8;;
26824;SDS011;14402;48.178;11.566;2023-08-12T01:15:11;4.3;;;2.7;;
26824;SDS011;14402;48.178;11.566;2023-08-12T01:15:39;4.5;;;2.6;;
26824;SDS011;14402;48.178;11.566;2023-08-12T01:16:09;4.5;;;2.6;;
26824;SDS011;14402;48.178;11.566;2023-08-12T01:16:40;4.5;;;2.6;;
26824;SDS011;14402;48.178;11.566;2023-08-12T01:17:11;4.0;;;2.5;;
26824;SDS011;14402;48.178;11.566;2023-08-12T01:17:41;3.5;;;2.5;;
26824;SDS011;14402;48.178;11.566;2023-08-12T01:18:10;3.5;;;2.5;;
26824;SDS011;14402;48.178;11.566;2023-08-12T01:18:40;3.5;;;2.5;;
26824;SDS011;14402;48.178;11.566;2023-08-12T01:19:10;3.8;;;2.6;;
26824;SDS011;14402;48.178;11.566;2023-08-12T01:19:40;4.0;;;2.7;;
26824;SDS011;14402;48.178;11.566;2023-08-12T01:20:10;4.0;;;2.7;;
26824;SDS011;14402;48.178;11.566;2023-08-12T01:20:40;4.0;;;2.7;;
26824;SDS011;14402;48.178;11.566;2023-08-12T01:21:11;4.1;;;2.6;;
26824;SDS011;14402;48.178;11.566;2023-08-12T01:21:41;4.2;;;2.5;;
26824;SDS011;14402;48.178;11.566;2023-08-12T01:22:11;4.2;;;2.5;;
26824;SDS011;14402;48.178;11.566;2023-08-12T01:22:41;4.2;;;2.5;;
26824;SDS011;14402;48.178;11.566;2023-08-12T01:23:10;3.8;;;2.5;;
26824;SDS011;14402;48.178;11.566;2023-08-12T01:23:40;3.3;;;2.6;;
26824;SDS011;14402;48.178;11.566;2023-08-12T01:24:11;3.3;;;2.6;;
26824;SDS011;14402;48.178;11.566;2023-08-12T01:24:41;3.3;;;2.6;;
26824;SDS011;14402;48.178;11.566;2023-08-12T01:25:11;3.0;;;2.4;;
26824;SDS011;14402;48.178;11.566;2023-08-12T01:25:41;2.7;;;2.3;;
26824;SDS011;14402;48.178;11.566;2023-08-12T01:26:11;2.7;;;2.3;;
26824;SDS011;14402;48.178;11.566;2023-08-12T01:26:41;2.7;;;2.3;;
26824;SDS011;14402;48.178;11.566;2023-08-12T01:27:11;2.8;;;2.4;;
26824;SDS011;14402;48.178;11.566;2023-08-12T01:27:41;2.9;;;2.5;;
26824;SDS011;14402;48.178;11.566;2023-08-12T01:28:11;2.9;;;2.5;;
26824;SDS011;14402;48.178;11.566;2023-08-12T01:28:41;2.9;;;2.5;;
26824;SDS011;14402;48.178;11.566;2023-08-12T01:29:11;2.8;;;2.5;;
26824;SDS011;14402;48.178;11.566;2023-08-12T01:29:42;2.8;;;2.5;;
26824;SDS011;14402;48.178;11.566;2023-08-12T01:30:11;2.8;;;2.5;;
26824;SDS011;14402;48.178;11.566;2023-08-12T01:30:44;2.8;;;2.5;;
26824;SDS011;14402;48.178;11.566;2023-08-12T01:31:12;3.4;;;2.5;;
26824;SDS011;14402;48.178;11.566;2023-08-12T01:31:43;4.0;;;2.6;;
26824;SDS011;14402;48.178;11.566;2023-08-12T01:32:14;4.0;;;2.6;;
26824;SDS011;14402;48.178;11.566;2023-08-12T01:32:43;4.0;;;2.6;;
26824;SDS011;14402;48.178;11.566;2023-08-12T01:33:13;3.7;;;2.5;;
26824;SDS011;14402;48.178;11.566;2023-08-12T01:33:43;3.4;;;2.4;;
26824;SDS011;14402;48.178;11.566;2023-08-12T01:34:14;3.4;;;2.4;;
26824;SDS011;14402;48.178;11.566;2023-08-12T01:34:44;3.4;;;2.4;;
26824;SDS011;14402;48.178;11.566;2023-08-12T01:35:14;3.1;;;2.4;;
26824;SDS011;14402;48.178;11.566;2023-08-12T01:35:43;2.8;;;2.4;;
26824;SDS011;14402;48.178;11.566;2023-08-12T01:36:14;2.8;;;2.4;;
26824;SDS011;14402;48.178;11.566;2023-08-12T01:36:43;2.8;;;2.4;;
26824;SDS011;14402;48.178;11.566;2023-08-12T01:37:14;3.3;;;2.5;;
26824;SDS011;14402;48.178;11.566;2023-08-12T01:37:43;3.8;;;2.5;;
26824;SDS011;14402;48.178;11.566;2023-08-12T01:38:13;3.8;;;2.5;;
26824;SDS011;14402;48.178;11.566;2023-08-12T01:38:43;3.8;;;2.5;;
26824;SDS011;14402;48.178;11.566;2023-08-12T01:39:13;3.3;;;2.5;;
26824;SDS011;14402;48.178;11.566;2023-08-12T01:39:43;2.9;;;2.5;;
26824;SDS011;14402;48.178;11.566;2023-08-12T01:40:13;2.9;;;2.5;;
26824;SDS011;14402;48.178;11.566;2023-08-12T01:40:43;2.9;;;2.5;;
26824;SDS011;14402;48.178;11.566;2023-08-12T01:41:13;3.0;;;2.5;;
26824;SDS011;14402;48.178;11.566;2023-08-12T01:41:43;3.1;;;2.5;;
26824;SDS011;14402;48.178;11.566;2023-08-12T01:42:13;3.1;;;2.5;;
26824;SDS011;14402;48.178;11.566;2023-08-12T01:42:43;3.1;;;2.5;;
26824;SDS011;14402;48.178;11.566;2023-08-12T01:43:13;3.6;;;2.5;;
26824;SDS011;14402;48.178;11.566;2023-08-12T01:43:43;4.2;;;2.5;;
26824;SDS011;14402;48.178;11.566;2023-08-12T01:44:14;4.2;;;2.5;;
26824;SDS011;14402;48.178;11.566;2023-08-12T01:44:44;4.2;;;2.5;;
26824;SDS011;14402;48.178;11.566;2023-08-12T01:45:14;3.8;;;2.4;;
26824;SDS011;14402;48.178;11.566;2023-08-12T01:45:44;3.4;;;2.3;;
26824;SDS011;14402;48.178;11.566;2023-08-12T01:46:14;3.4;;;2.3;;
26824;SDS011;14402;48.178;11.566;2023-08-12T01:46:44;3.4;;;2.3;;
26824;SDS011;14402;48.178;11.566;2023-08-12T01:47:14;3.3;;;2.3;;
26824;SDS011;14402;48.178;11.566;2023-08-12T01:47:44;3.3;;;2.4;;
26824;SDS011;14402;48.178;11.566;2023-08-12T01:48:14;3.3;;;2.4;;
26824;SDS011;14402;48.178;11.566;2023-08-12T01:48:44;3.3;;;2.4;;
26824;SDS011;14402;48.178;11.566;2023-08-12T01:49:14;3.2;;;2.4;;
26824;SDS011;14402;48.178;11.566;2023-08-12T01:49:44;3.0;;;2.4;;
26824;SDS011;14402;48.178;11.566;2023-08-12T01:50:15;3.0;;;2.4;;
26824;SDS011;14402;48.178;11.566;2023-08-12T01:50:45;3.0;;;2.4;;
26824;SDS011;14402;48.178;11.566;2023-08-12T01:51:15;3.0;;;2.5;;
26824;SDS011;14402;48.178;11.566;2023-08-12T01:51:45;3.0;;;2.5;;
26824;SDS011;14402;48.178;11.566;2023-08-12T01:52:15;3.0;;;2.5;;
26824;SDS011;14402;48.178;11.566;2023-08-12T01:52:45;3.0;;;2.5;;
26824;SDS011;14402;48.178;11.566;2023-08-12T01:53:15;3.3;;;2.7;;
26824;SDS011;14402;48.178;11.566;2023-08-12T01:53:45;3.6;;;2.8;;
26824;SDS011;14402;48.178;11.566;2023-08-12T01:54:15;3.6;;;2.8;;
26824;SDS011;14402;48.178;11.566;2023-08-12T01:54:45;3.6;;;2.8;;
26824;SDS011;14402;48.178;11.566;2023-08-12T01:55:15;3.1;;;2.5;;
26824;SDS011;14402;48.178;11.566;2023-08-12T01:55:45;2.6;;;2.3;;
26824;SDS011;14402;48.178;11.566;2023-08-12T01:56:15;2.6;;;2.3;;
26824;SDS011;14402;48.178;11.566;2023-08-12T01:56:46;2.6;;;2.3;;
26824;SDS011;14402;48.178;11.566;2023-08-12T01:57:15;2.8;;;2.3;;
26824;SDS011;14402;48.178;11.566;2023-08-12T01:57:46;2.9;;;2.4;;
26824;SDS011;14402;48.178;11.566;2023-08-12T01:58:16;2.9;;;2.4;;
26824;SDS011;14402;48.178;11.566;2023-08-12T01:58:46;2.9;;;2.4;;
26824;SDS011;14402;48.178;11.566;2023-08-12T01:59:16;3.0;;;2.2;;
26824;SDS011;14402;48.178;11.566;2023-08-12T01:59:46;3.0;;;2.1;;
26824;SDS011;14402;48.178;11.566;2023-08-12T02:00:16;3.0;;;2.1;;
26824;SDS011;14402;48.178;11.566;2023-08-12T02:00:46;3.0;;;2.1;;
26824;SDS011;14402;48.178;11.566;2023-08-12T02:01:16;3.0;;;2.2;;
26824;SDS011;14402;48.178;11.566;2023-08-12T02:01:46;2.9;;;2.4;;
26824;SDS011;14402;48.178;11.566;2023-08-12T02:02:16;2.9;;;2.4;;
26824;SDS011;14402;48.178;11.566;2023-08-12T02:02:46;2.9;;;2.4;;
26824;SDS011;14402;48.178;11.566;2023-08-12T02:03:16;2.9;;;2.5;;
26824;SDS011;14402;48.178;11.566;2023-08-12T02:03:47;2.9;;;2.6;;
26824;SDS011;14402;48.178;11.566;2023-08-12T02:04:17;2.9;;;2.6;;
26824;SDS011;14402;48.178;11.566;2023-08-12T02:04:47;2.9;;;2.6;;
26824;SDS011;14402;48.178;11.566;2023-08-12T02:05:17;3.0;;;2.5;;
26824;SDS011;14402;48.178;11.566;2023-08-12T02:05:47;3.1;;;2.4;;
26824;SDS011;14402;48.178;11.566;2023-08-12T02:06:17;3.1;;;2.4;;
26824;SDS011;14402;48.178;11.566;2023-08-12T02:06:47;3.1;;;2.4;;
26824;SDS011;14402;48.178;11.566;2023-08-12T02:07:17;2.9;;;2.3;;
26824;SDS011;14402;48.178;11.566;2023-08-12T02:07:47;2.8;;;2.3;;
26824;SDS011;14402;48.178;11.566;2023-08-12T02:08:17;2.8;;;2.3;;
26824;SDS011;14402;48.178;11.566;2023-08-12T02:08:47;2.8;;;2.3;;
26824;SDS011;14402;48.178;11.566;2023-08-12T02:09:17;3.0;;;2.3;;
26824;SDS011;14402;48.178;11.566;2023-08-12T02:09:47;3.3;;;2.3;;
26824;SDS011;14402;48.178;11.566;2023-08-12T02:10:18;3.3;;;2.3;;
26824;SDS011;14402;48.178;11.566;2023-08-12T02:10:48;3.3;;;2.3;;
26824;SDS011;14402;48.178;11.566;2023-08-12T02:11:18;3.2;;;2.4;;
26824;SDS011;14402;48.178;11.566;2023-08-12T02:11:48;3.1;;;2.6;;
26824;SDS011;14402;48.178;11.566;2023-08-12T02:12:18;3.1;;;2.6;;
26824;SDS011;14402;48.178;11.566;2023-08-12T02:12:48;3.1;;;2.6;;
26824;SDS011;14402;48.178;11.566;2023-08-12T02:13:18;3.4;;;2.4;;
26824;SDS011;14402;48.178;11.566;2023-08-12T02:13:48;3.7;;;2.3;;
26824;SDS011;14402;48.178;11.566;2023-08-12T02:14:18;3.7;;;2.3;;
26824;SDS011;14402;48.178;11.566;2023-08-12T02:14:48;3.7;;;2.3;;
26824;SDS011;14402;48.178;11.566;2023-08-12T02:15:18;3.7;;;2.3;;
26824;SDS011;14402;48.178;11.566;2023-08-12T02:15:48;3.7;;;2.3;;
26824;SDS011;14402;48.178;11.566;2023-08-12T02:16:18;3.7;;;2.3;;
26824;SDS011;14402;48.178;11.566;2023-08-12T02:16:48;3.7;;;2.3;;
26824;SDS011;14402;48.178;11.566;2023-08-12T02:17:20;3.7;;;2.2;;
26824;SDS011;14402;48.178;11.566;2023-08-12T02:17:49;3.6;;;2.2;;
26824;SDS011;14402;48.178;11.566;2023-08-12T02:18:19;3.6;;;2.2;;
26824;SDS011;14402;48.178;11.566;2023-08-12T02:18:49;3.6;;;2.2;;
26824;SDS011;14402;48.178;11.566;2023-08-12T02:19:19;3.0;;;2.2;;
26824;SDS011;14402;48.178;11.566;2023-08-12T02:19:49;2.5;;;2.3;;
26824;SDS011;14402;48.178;11.566;2023-08-12T02:20:19;2.5;;;2.3;;
26824;SDS011;14402;48.178;11.566;2023-08-12T02:20:49;2.5;;;2.3;;
26824;SDS011;14402;48.178;11.566;2023-08-12T02:21:19;2.8;;;2.3;;
26824;SDS011;14402;48.178;11.566;2023-08-12T02:21:49;3.0;;;2.3;;
26824;SDS011;14402;48.178;11.566;2023-08-12T02:22:20;3.0;;;2.3;;
26824;SDS011;14402;48.178;11.566;2023-08-12T02:22:49;3.0;;;2.3;;
26824;SDS011;14402;48.178;11.566;2023-08-12T02:23:19;3.0;;;2.4;;
26824;SDS011;14402;48.178;11.566;2023-08-12T02:23:49;2.9;;;2.6;;
26824;SDS011;14402;48.178;11.566;2023-08-12T02:24:20;2.9;;;2.6;;
26824;SDS011;14402;48.178;11.566;2023-08-12T02:24:50;2.9;;;2.6;;
26824;SDS011;14402;48.178;11.566;2023-08-12T02:25:20;2.8;;;2.5;;
26824;SDS011;14402;48.178;11.566;2023-08-12T02:25:51;2.8;;;2.4;;
26824;SDS011;14402;48.178;11.566;2023-08-12T02:26:20;2.8;;;2.4;;
26824;SDS011;14402;48.178;11.566;2023-08-12T02:26:50;2.8;;;2.4;;
26824;SDS011;14402;48.178;11.566;2023-08-12T02:27:20;3.6;;;2.4;;
26824;SDS011;14402;48.178;11.566;2023-08-12T02:27:50;4.4;;;2.4;;
26824;SDS011;14402;48.178;11.566;2023-08-12T02:28:20;4.4;;;2.4;;
26824;SDS011;14402;48.178;11.566;2023-08-12T02:28:50;4.4;;;2.4;;
26824;SDS011;14402;48.178;11.566;2023-08-12T02:29:20;3.7;;;2.6;;
26824;SDS011;14402;48.178;11.566;2023-08-12T02:29:50;3.0;;;2.7;;
26824;SDS011;14402;48.178;11.566;2023-08-12T02:30:20;3.0;;;2.7;;
26824;SDS011;14402;48.178;11.566;2023-08-12T02:30:51;3.0;;;2.7;;
26824;SDS011;14402;48.178;11.566;2023-08-12T02:31:21;3.0;;;2.5;;
26824;SDS011;14402;48.178;11.566;2023-08-12T02:31:51;3.0;;;2.3;;
26824;SDS011;14402;48.178;11.566;2023-08-12T02:32:21;3.0;;;2.3;;
26824;SDS011;14402;48.178;11.566;2023-08-12T02:32:51;3.0;;;2.3;;
26824;SDS011;14402;48.178;11.566;2023-08-12T02:33:21;3.2;;;2.4;;
26824;SDS011;14402;48.178;11.566;2023-08-12T02:33:51;3.5;;;2.5;;
26824;SDS011;14402;48.178;11.566;2023-08-12T02:34:21;3.5;;;2.5;;
26824;SDS011;14402;48.178;11.566;2023-08-12T02:34:51;3.5;;;2.5;;
26824;SDS011;14402;48.178;11.566;2023-08-12T02:35:21;3.8;;;2.5;;
26824;SDS011;14402;48.178;11.566;2023-08-12T02:35:52;4.0;;;2.4;;
26824;SDS011;14402;48.178;11.566;2023-08-12T02:36:21;4.0;;;2.4;;
26824;SDS011;14402;48.178;11.566;2023-08-12T02:36:51;4.0;;;2.4;;
26824;SDS011;14402;48.178;11.566;2023-08-12T02:37:21;3.5;;;2.5;;
26824;SDS011;14402;48.178;11.566;2023-08-12T02:37:51;3.0;;;2.6;;
26824;SDS011;14402;48.178;11.566;2023-08-12T02:38:22;3.0;;;2.6;;
26824;SDS011;14402;48.178;11.566;2023-08-12T02:38:52;3.0;;;2.6;;
26824;SDS011;14402;48.178;11.566;2023-08-12T02:39:22;3.1;;;2.6;;
26824;SDS011;14402;48.178;11.566;2023-08-12T02:39:52;3.2;;;2.6;;
26824;SDS011;14402;48.178;11.566;2023-08-12T02:40:22;3.2;;;2.6;;
26824;SDS011;14402;48.178;11.566;2023-08-12T02:40:52;3.2;;;2.6;;
26824;SDS011;14402;48.178;11.566;2023-08-12T02:41:22;3.3;;;2.5;;
26824;SDS011;14402;48.178;11.566;2023-08-12T02:41:52;3.5;;;2.5;;
26824;SDS011;14402;48.178;11.566;2023-08-12T02:42:22;3.5;;;2.5;;
26824;SDS011;14402;48.178;11.566;2023-08-12T02:42:52;3.5;;;2.5;;
26824;SDS011;14402;48.178;11.566;2023-08-12T02:43:22;3.4;;;2.5;;
26824;SDS011;14402;48.178;11.566;2023-08-12T02:43:52;3.3;;;2.4;;
26824;SDS011;14402;48.178;11.566;2023-08-12T02:44:22;3.3;;;2.4;;
26824;SDS011;14402;48.178;11.566;2023-08-12T02:44:53;3.3;;;2.4;;
26824;SDS011;14402;48.178;11.566;2023-08-12T02:45:23;3.2;;;2.5;;
26824;SDS011;14402;48.178;11.566;2023-08-12T02:45:53;3.2;;;2.6;;
26824;SDS011;14402;48.178;11.566;2023-08-12T02:46:23;3.2;;;2.6;;
26824;SDS011;14402;48.178;11.566;2023-08-12T02:46:53;3.2;;;2.6;;
26824;SDS011;14402;48.178;11.566;2023-08-12T02:47:23;3.0;;;2.5;;
26824;SDS011;14402;48.178;11.566;2023-08-12T02:47:53;2.7;;;2.5;;
26824;SDS011;14402;48.178;11.566;2023-08-12T02:48:23;2.7;;;2.5;;
26824;SDS011;14402;48.178;11.566;2023-08-12T02:48:53;2.7;;;2.5;;
26824;SDS011;14402;48.178;11.566;2023-08-12T02:49:23;2.8;;;2.5;;
26824;SDS011;14402;48.178;11.566;2023-08-12T02:49:53;2.9;;;2.4;;
26824;SDS011;14402;48.178;11.566;2023-08-12T02:50:23;2.9;;;2.4;;
26824;SDS011;14402;48.178;11.566;2023-08-12T02:50:53;2.9;;;2.4;;
26824;SDS011;14402;48.178;11.566;2023-08-12T02:51:23;3.7;;;2.5;;
26824;SDS011;14402;48.178;11.566;2023-08-12T02:51:54;4.4;;;2.6;;
26824;SDS011;14402;48.178;11.566;2023-08-12T02:52:24;4.4;;;2.6;;
26824;SDS011;14402;48.178;11.566;2023-08-12T02:52:54;4.4;;;2.6;;
26824;SDS011;14402;48.178;11.566;2023-08-12T02:53:24;3.7;;;2.5;;
26824;SDS011;14402;48.178;11.566;2023-08-12T02:53:54;3.0;;;2.5;;
26824;SDS011;14402;48.178;11.566;2023-08-12T02:54:24;3.0;;;2.5;;
26824;SDS011;14402;48.178;11.566;2023-08-12T02:54:54;3.0;;;2.5;;
26824;SDS011;14402;48.178;11.566;2023-08-12T02:55:24;2.8;;;2.5;;
26824;SDS011;14402;48.178;11.566;2023-08-12T02:55:54;2.7;;;2.5;;
26824;SDS011;14402;48.178;11.566;2023-08-12T02:56:24;2.7;;;2.5;;
26824;SDS011;14402;48.178;11.566;2023-08-12T02:56:54;2.7;;;2.5;;
26824;SDS011;14402;48.178;11.566;2023-08-12T02:57:24;2.8;;;2.5;;
26824;SDS011;14402;48.178;11.566;2023-08-12T02:57:54;2.8;;;2.5;;
26824;SDS011;14402;48.178;11.566;2023-08-12T02:58:24;2.8;;;2.5;;
26824;SDS011;14402;48.178;11.566;2023-08-12T02:58:55;2.8;;;2.5;;
26824;SDS011;14402;48.178;11.566;2023-08-12T02:59:25;2.8;;;2.5;;
26824;SDS011;14402;48.178;11.566;2023-08-12T02:59:55;2.9;;;2.6;;
26824;SDS011;14402;48.178;11.566;2023-08-12T03:00:25;2.9;;;2.6;;
26824;SDS011;14402;48.178;11.566;2023-08-12T03:00:55;2.9;;;2.6;;
26824;SDS011;14402;48.178;11.566;2023-08-12T03:01:25;2.9;;;2.6;;
26824;SDS011;14402;48.178;11.566;2023-08-12T03:01:55;2.9;;;2.6;;
26824;SDS011;14402;48.178;11.566;2023-08-12T03:02:25;2.9;;;2.6;;
26824;SDS011;14402;48.178;11.566;2023-08-12T03:02:55;2.9;;;2.6;;
26824;SDS011;14402;48.178;11.566;2023-08-12T03:03:25;3.1;;;2.6;;
26824;SDS011;14402;48.178;11.566;2023-08-12T03:03:55;3.2;;;2.6;;